Time;durP1;ratioP1;P1;durP2;ratioP2;P2;SDS_P1;SDS_P2;PMS_P1;PMS_P2;Temp;Humidity;BMP_temperature;BMP_pressure;BME280_temperature;BME280_humidity;BME280_pressure;Samples;Min_cycle;Max_cycle;Signal;HPM_P1;HPM_P2
2021/12/31 00:00:47;;;;;;;17.10;6.03;;;7.40;99.90;;;;;;5031135;28;20850;-60
2021/12/31 00:03:14;;;;;;;20.90;5.77;;;7.40;99.90;;;;;;5025198;28;20466;-61
2021/12/31 00:05:40;;;;;;;40.70;6.27;;;7.40;99.90;;;;;;5030744;28;20437;-60
2021/12/31 00:08:06;;;;;;;26.77;6.80;;;7.40;99.90;;;;;;5029775;28;20855;-60
2021/12/31 00:10:32;;;;;;;32.93;6.43;;;7.40;99.90;;;;;;5021049;28;20392;-61
2021/12/31 00:12:57;;;;;;;15.77;5.67;;;7.30;99.90;;;;;;5025889;28;20670;-58
2021/12/31 00:15:24;;;;;;;24.73;5.90;;;7.30;99.90;;;;;;5007052;28;20434;-60
2021/12/31 00:17:49;;;;;;;27.00;6.60;;;7.30;99.90;;;;;;5032357;28;20710;-60
2021/12/31 00:20:19;;;;;;;24.13;5.60;;;7.40;99.90;;;;;;5033667;28;20757;-61
2021/12/31 00:25:14;;;;;;;23.33;6.63;;;7.40;99.90;;;;;;5035321;28;20433;-60
2021/12/31 00:27:39;;;;;;;42.70;6.47;;;7.40;99.90;;;;;;5012816;28;20419;-60
2021/12/31 00:30:06;;;;;;;53.90;5.57;;;7.40;99.90;;;;;;5027090;28;20565;-60
2021/12/31 00:32:32;;;;;;;30.60;5.47;;;7.40;99.90;;;;;;5028940;28;20184;-60
2021/12/31 00:34:58;;;;;;;35.47;4.83;;;7.30;99.90;;;;;;5035025;28;20464;-60
2021/12/31 00:37:32;;;;;;;23.10;4.67;;;7.30;99.90;;;;;;5024444;28;21108;-58
2021/12/31 00:39:58;;;;;;;33.03;6.10;;;7.30;99.90;;;;;;5029410;28;20437;-61
2021/12/31 00:42:24;;;;;;;19.17;5.13;;;7.30;99.90;;;;;;5036846;28;20850;-61
2021/12/31 00:44:50;;;;;;;21.10;3.30;;;7.30;99.90;;;;;;5022171;28;20945;-60
2021/12/31 00:47:16;;;;;;;48.10;6.20;;;7.30;99.90;;;;;;5021405;28;20203;-60
2021/12/31 00:49:42;;;;;;;19.37;4.07;;;7.30;99.90;;;;;;5023547;28;20443;-61
2021/12/31 00:52:08;;;;;;;6.63;2.50;;;7.30;99.90;;;;;;5026877;28;20264;-60
2021/12/31 00:54:34;;;;;;;30.07;3.00;;;7.30;99.90;;;;;;5025010;28;20493;-60
2021/12/31 00:57:03;;;;;;;48.03;5.80;;;7.30;99.90;;;;;;5011573;28;20437;-60
2021/12/31 00:59:30;;;;;;;31.70;3.70;;;7.30;99.90;;;;;;5063728;23;21149;-55
2021/12/31 01:01:56;;;;;;;26.07;3.17;;;7.30;99.90;;;;;;5053007;28;20417;-57
2021/12/31 01:04:22;;;;;;;48.10;3.77;;;7.30;99.90;;;;;;5047756;28;20609;-59
2021/12/31 01:06:48;;;;;;;23.17;3.00;;;7.30;99.90;;;;;;5029400;28;20317;-59
2021/12/31 01:09:14;;;;;;;21.73;3.97;;;7.30;99.90;;;;;;5034494;28;20497;-56
2021/12/31 01:11:42;;;;;;;36.57;5.73;;;7.20;99.90;;;;;;5032351;28;21011;-59
2021/12/31 01:14:19;;;;;;;47.70;4.33;;;7.20;99.90;;;;;;5056455;28;20587;-60
2021/12/31 01:16:50;;;;;;;36.00;4.20;;;7.20;99.90;;;;;;5047661;28;20429;-57
2021/12/31 01:21:41;;;;;;;35.73;2.97;;;7.10;99.90;;;;;;5046109;28;20471;-58
2021/12/31 01:24:07;;;;;;;44.60;3.00;;;7.10;99.90;;;;;;5039248;28;20267;-57
2021/12/31 01:26:33;;;;;;;20.93;2.53;;;7.10;99.90;;;;;;5046927;28;20901;-58
2021/12/31 01:28:59;;;;;;;36.17;3.40;;;7.10;99.90;;;;;;5041140;28;20204;-57
2021/12/31 01:31:25;;;;;;;22.67;2.90;;;7.10;99.90;;;;;;5044624;28;20877;-56
2021/12/31 01:33:51;;;;;;;39.63;3.73;;;7.00;99.90;;;;;;5039512;28;20242;-55
2021/12/31 01:36:17;;;;;;;23.83;2.70;;;7.00;99.90;;;;;;5042764;28;20442;-56
2021/12/31 01:38:45;;;;;;;22.73;2.80;;;7.00;99.90;;;;;;5045470;28;20445;-57
2021/12/31 01:41:11;;;;;;;26.17;2.93;;;7.00;99.90;;;;;;5044864;28;20178;-58
2021/12/31 01:43:37;;;;;;;12.83;3.20;;;7.00;99.90;;;;;;5030856;28;20925;-59
2021/12/31 01:46:11;;;;;;;17.03;3.60;;;7.00;99.90;;;;;;5048859;28;20528;-59
2021/12/31 01:48:59;;;;;;;23.40;4.83;;;7.00;99.90;;;;;;5036981;28;20855;-58
2021/12/31 01:51:25;;;;;;;9.93;2.60;;;7.00;99.90;;;;;;5037064;28;20480;-58
2021/12/31 01:53:50;;;;;;;11.23;2.70;;;7.00;99.90;;;;;;5039649;28;20694;-57
2021/12/31 01:56:20;;;;;;;8.30;2.93;;;7.00;99.90;;;;;;5041167;28;21022;-57
2021/12/31 01:58:49;;;;;;;13.07;3.20;;;7.00;99.90;;;;;;5043128;28;20203;-58
2021/12/31 02:01:15;;;;;;;18.43;2.90;;;7.00;99.90;;;;;;5044474;28;20508;-56
2021/12/31 02:03:40;;;;;;;29.57;2.70;;;7.00;99.90;;;;;;5045553;28;20534;-57
2021/12/31 02:06:06;;;;;;;18.53;2.40;;;7.00;99.90;;;;;;5054949;28;20205;-57
2021/12/31 02:08:32;;;;;;;34.03;3.00;;;7.00;99.90;;;;;;5043524;28;20209;-57
2021/12/31 02:10:58;;;;;;;13.17;2.27;;;6.90;99.90;;;;;;5041990;28;20182;-58
2021/12/31 02:13:25;;;;;;;13.87;2.00;;;6.90;99.90;;;;;;5047205;28;20496;-53
2021/12/31 02:15:52;;;;;;;16.63;2.20;;;6.90;99.90;;;;;;5034603;28;21264;-56
2021/12/31 02:18:18;;;;;;;15.50;2.17;;;6.90;99.90;;;;;;5045148;28;20533;-56
2021/12/31 02:20:47;;;;;;;23.03;2.80;;;6.90;99.90;;;;;;5041386;28;20430;-57
2021/12/31 02:23:16;;;;;;;4.50;2.20;;;6.90;99.90;;;;;;5048143;28;20545;-57
2021/12/31 02:25:42;;;;;;;3.60;2.10;;;6.90;99.90;;;;;;5057067;28;20451;-57
2021/12/31 02:28:07;;;;;;;13.77;2.80;;;6.90;99.90;;;;;;5026869;28;20838;-56
2021/12/31 02:30:33;;;;;;;2.97;1.97;;;6.80;99.90;;;;;;5042733;28;20186;-57
2021/12/31 02:32:59;;;;;;;2.40;2.00;;;6.80;99.90;;;;;;5048179;28;20604;-57
2021/12/31 02:35:25;;;;;;;2.07;1.90;;;6.80;99.90;;;;;;5041638;28;20209;-56
2021/12/31 02:37:51;;;;;;;2.00;1.90;;;6.80;99.90;;;;;;5048321;28;20422;-58
2021/12/31 02:40:19;;;;;;;5.40;2.50;;;6.80;99.90;;;;;;5048165;28;20418;-56
2021/12/31 02:42:45;;;;;;;3.50;2.40;;;6.80;99.90;;;;;;5041918;28;20259;-56
2021/12/31 02:45:12;;;;;;;5.30;2.80;;;6.80;99.90;;;;;;5049767;28;20716;-57
2021/12/31 02:47:43;;;;;;;8.10;2.80;;;6.80;99.90;;;;;;5045069;28;20780;-58
2021/12/31 02:50:12;;;;;;;5.30;2.40;;;6.80;99.90;;;;;;5045715;28;20471;-56
2021/12/31 02:52:38;;;;;;;10.00;2.87;;;6.80;99.90;;;;;;5046150;28;20518;-57
2021/12/31 02:55:04;;;;;;;8.30;2.00;;;6.80;99.90;;;;;;5045361;28;20457;-57
2021/12/31 02:57:30;;;;;;;21.20;9.93;;;6.80;99.90;;;;;;5048619;28;20460;-56
2021/12/31 02:59:56;;;;;;;28.90;14.37;;;6.80;99.90;;;;;;5047186;28;20445;-56
2021/12/31 03:02:24;;;;;;;7.63;2.77;;;6.80;99.90;;;;;;5045865;28;20815;-55
2021/12/31 03:04:55;;;;;;;2.47;2.27;;;6.80;99.90;;;;;;5046726;28;20441;-57
2021/12/31 03:07:23;;;;;;;3.40;2.97;;;6.70;99.90;;;;;;5024767;28;20437;-56
2021/12/31 03:09:51;;;;;;;2.37;2.00;;;6.70;99.90;;;;;;5042525;28;20939;-56
2021/12/31 03:12:17;;;;;;;2.57;2.37;;;6.70;99.90;;;;;;5043936;28;20520;-54
2021/12/31 03:14:45;;;;;;;3.53;2.23;;;6.80;99.90;;;;;;5043201;28;20493;-56
2021/12/31 03:17:12;;;;;;;3.00;2.60;;;6.70;99.90;;;;;;5044534;28;20437;-56
2021/12/31 03:19:38;;;;;;;2.20;1.90;;;6.80;99.90;;;;;;5041511;28;20542;-55
2021/12/31 03:22:05;;;;;;;2.40;2.20;;;6.80;99.90;;;;;;5039888;28;20790;-58
2021/12/31 03:24:31;;;;;;;2.97;2.40;;;6.80;99.90;;;;;;5042916;28;20182;-56
2021/12/31 03:26:56;;;;;;;2.90;2.03;;;6.80;99.90;;;;;;5042830;28;20908;-55
2021/12/31 03:29:23;;;;;;;2.13;1.93;;;6.90;99.90;;;;;;5040305;28;20457;-56
2021/12/31 03:31:48;;;;;;;2.03;1.83;;;6.90;99.90;;;;;;5041876;28;20252;-55
2021/12/31 03:34:14;;;;;;;2.37;2.17;;;6.90;99.90;;;;;;5042537;28;20955;-56
2021/12/31 03:36:44;;;;;;;3.27;2.00;;;6.90;99.90;;;;;;5043016;28;20632;-56
2021/12/31 03:39:10;;;;;;;2.40;2.20;;;6.90;99.90;;;;;;5041942;28;21017;-55
2021/12/31 03:41:37;;;;;;;2.67;2.10;;;6.80;99.90;;;;;;5043062;28;20448;-55
2021/12/31 03:44:04;;;;;;;2.30;2.10;;;6.90;99.90;;;;;;5042768;28;20426;-55
2021/12/31 03:46:30;;;;;;;2.70;2.50;;;6.90;99.90;;;;;;5042483;28;20425;-57
2021/12/31 03:48:56;;;;;;;3.50;2.73;;;6.80;99.90;;;;;;5041947;28;21067;-56
2021/12/31 03:51:21;;;;;;;2.50;2.30;;;6.80;99.90;;;;;;5043122;28;20190;-56
2021/12/31 03:53:47;;;;;;;2.00;1.90;;;6.90;99.90;;;;;;5023385;28;20202;-57
2021/12/31 03:56:13;;;;;;;2.93;2.20;;;6.90;99.90;;;;;;5043285;28;20179;-56
2021/12/31 03:58:39;;;;;;;2.60;2.40;;;6.90;99.90;;;;;;5041988;28;20214;-56
2021/12/31 04:01:04;;;;;;;2.57;2.30;;;6.90;99.90;;;;;;5041225;28;20195;-56
2021/12/31 04:03:30;;;;;;;5.33;2.07;;;6.90;99.90;;;;;;5041459;28;20183;-58
2021/12/31 04:05:55;;;;;;;2.00;1.90;;;6.90;99.90;;;;;;5041733;28;20201;-55
2021/12/31 04:08:21;;;;;;;2.43;2.23;;;6.90;99.90;;;;;;5041551;28;20227;-58
2021/12/31 04:10:47;;;;;;;2.50;2.30;;;6.90;99.90;;;;;;5043024;28;20175;-56
2021/12/31 04:13:13;;;;;;;3.70;2.20;;;6.90;99.90;;;;;;5040345;28;20171;-57
2021/12/31 04:15:39;;;;;;;2.13;1.93;;;6.90;99.90;;;;;;5043384;28;20768;-57
2021/12/31 04:18:04;;;;;;;2.10;2.00;;;6.90;99.90;;;;;;5042179;28;20195;-57
2021/12/31 04:20:39;;;;;;;3.00;2.40;;;6.90;99.90;;;;;;5041569;28;20172;-57
2021/12/31 04:23:13;;;;;;;4.77;2.43;;;7.00;99.90;;;;;;5040235;28;20184;-59
2021/12/31 04:25:39;;;;;;;2.97;2.23;;;7.00;99.90;;;;;;5041549;28;20425;-57
2021/12/31 04:28:08;;;;;;;2.83;2.50;;;6.90;99.90;;;;;;5040866;28;21125;-56
2021/12/31 04:30:34;;;;;;;2.10;1.90;;;7.00;99.90;;;;;;5040309;28;20254;-57
2021/12/31 04:33:01;;;;;;;1.83;1.70;;;7.00;99.90;;;;;;5040481;28;20430;-58
2021/12/31 04:35:26;;;;;;;2.23;1.90;;;7.00;99.90;;;;;;5038448;28;20426;-56
2021/12/31 04:37:52;;;;;;;2.30;2.10;;;7.00;99.90;;;;;;5038026;28;20819;-56
2021/12/31 04:40:18;;;;;;;2.60;2.23;;;7.00;99.90;;;;;;5037873;28;20198;-58
2021/12/31 04:42:46;;;;;;;1.73;1.63;;;7.00;99.90;;;;;;5021946;28;20218;-56
2021/12/31 04:45:13;;;;;;;2.53;2.33;;;7.10;99.90;;;;;;5039902;28;20186;-57
2021/12/31 04:47:39;;;;;;;2.27;2.10;;;7.10;99.90;;;;;;5039568;28;20445;-59
2021/12/31 04:50:06;;;;;;;1.90;1.80;;;7.10;99.90;;;;;;5037459;28;20460;-56
2021/12/31 04:52:31;;;;;;;2.10;2.00;;;7.10;99.90;;;;;;5041199;28;20434;-57
2021/12/31 04:54:57;;;;;;;2.40;2.20;;;7.10;99.90;;;;;;5037665;28;20458;-55
2021/12/31 04:57:25;;;;;;;1.80;1.70;;;7.10;99.90;;;;;;5020618;28;20575;-58
2021/12/31 04:59:51;;;;;;;2.50;2.27;;;7.10;99.90;;;;;;5039857;28;20351;-58
2021/12/31 05:02:17;;;;;;;3.60;2.00;;;7.10;99.90;;;;;;5037929;28;20527;-58
2021/12/31 05:04:42;;;;;;;2.03;1.83;;;7.10;99.90;;;;;;5045682;28;20432;-55
2021/12/31 05:07:08;;;;;;;1.90;1.80;;;7.10;99.90;;;;;;5039509;28;20210;-58
2021/12/31 05:09:34;;;;;;;11.30;2.50;;;7.10;99.90;;;;;;5023913;28;20207;-57
2021/12/31 05:12:00;;;;;;;4.40;2.67;;;7.10;99.90;;;;;;5038403;28;20187;-56
2021/12/31 05:14:26;;;;;;;2.60;2.40;;;7.10;99.90;;;;;;5040878;28;20676;-57
2021/12/31 05:16:52;;;;;;;3.93;2.70;;;7.10;99.90;;;;;;5040198;28;20437;-57
2021/12/31 05:19:17;;;;;;;2.70;2.50;;;7.10;99.90;;;;;;5038376;28;20689;-57
2021/12/31 05:21:43;;;;;;;2.63;2.43;;;7.10;99.90;;;;;;5037609;28;20634;-57
2021/12/31 05:24:09;;;;;;;2.97;2.67;;;7.10;99.90;;;;;;5041043;28;20179;-57
2021/12/31 05:26:34;;;;;;;4.20;2.43;;;7.10;99.90;;;;;;5041597;28;20187;-57
2021/12/31 05:29:02;;;;;;;2.27;2.03;;;7.10;99.90;;;;;;5038701;28;20267;-56
2021/12/31 05:31:28;;;;;;;5.73;2.40;;;7.10;99.90;;;;;;5040046;28;20178;-55
2021/12/31 05:33:53;;;;;;;2.40;2.20;;;7.10;99.90;;;;;;5037703;28;20456;-56
2021/12/31 05:36:19;;;;;;;2.23;2.00;;;7.10;99.90;;;;;;5038639;28;20963;-55
2021/12/31 05:38:44;;;;;;;3.10;2.60;;;7.10;99.90;;;;;;5036984;28;20202;-55
2021/12/31 05:41:11;;;;;;;3.97;2.67;;;7.10;99.90;;;;;;5038488;28;20694;-55
2021/12/31 05:43:36;;;;;;;3.13;2.40;;;7.10;99.90;;;;;;5038286;28;20295;-55
2021/12/31 05:46:02;;;;;;;2.80;2.30;;;7.10;99.90;;;;;;5041771;28;20961;-55
2021/12/31 05:48:29;;;;;;;5.50;2.20;;;7.10;99.90;;;;;;5044351;28;20197;-55
2021/12/31 05:50:55;;;;;;;3.17;2.50;;;7.10;99.90;;;;;;5043466;28;20186;-57
2021/12/31 05:53:20;;;;;;;6.40;2.43;;;7.10;99.90;;;;;;5041517;28;20667;-58
2021/12/31 05:55:46;;;;;;;2.67;2.47;;;7.10;99.90;;;;;;5042347;28;20460;-56
2021/12/31 05:58:12;;;;;;;2.40;2.20;;;7.10;99.90;;;;;;5042430;28;20230;-55
2021/12/31 06:00:37;;;;;;;3.87;2.73;;;7.10;99.90;;;;;;5040378;28;20179;-56
2021/12/31 06:03:03;;;;;;;28.97;12.40;;;7.10;99.90;;;;;;5041725;28;20184;-57
2021/12/31 06:05:28;;;;;;;9.83;5.80;;;7.20;99.90;;;;;;5042141;28;20194;-56
2021/12/31 06:07:57;;;;;;;5.77;4.00;;;7.10;99.90;;;;;;5041198;28;20748;-57
2021/12/31 06:10:24;;;;;;;5.73;4.00;;;7.20;99.90;;;;;;5042422;28;20179;-56
2021/12/31 06:12:52;;;;;;;3.60;2.70;;;7.20;99.90;;;;;;5040729;28;20587;-57
2021/12/31 06:15:20;;;;;;;2.73;2.50;;;7.20;99.90;;;;;;5040323;28;20469;-58
2021/12/31 06:17:45;;;;;;;2.63;2.43;;;7.20;99.90;;;;;;5041779;28;20467;-57
2021/12/31 06:20:11;;;;;;;3.00;2.70;;;7.20;99.90;;;;;;5040566;28;20963;-56
2021/12/31 06:22:38;;;;;;;3.20;2.80;;;7.30;99.90;;;;;;5041673;28;20179;-56
2021/12/31 06:25:04;;;;;;;6.83;4.20;;;7.30;99.90;;;;;;5041380;28;20437;-55
2021/12/31 06:27:30;;;;;;;5.50;4.30;;;7.30;99.90;;;;;;5043102;28;20528;-56
2021/12/31 06:29:56;;;;;;;3.83;3.30;;;7.20;99.90;;;;;;5040641;28;20501;-55
2021/12/31 06:32:21;;;;;;;3.70;3.20;;;7.30;99.90;;;;;;5023949;28;20263;-56
2021/12/31 06:34:47;;;;;;;3.70;3.20;;;7.30;99.90;;;;;;5041076;28;20206;-56
2021/12/31 06:37:13;;;;;;;4.63;3.10;;;7.30;99.90;;;;;;5042957;28;20178;-57
2021/12/31 06:39:41;;;;;;;4.00;3.10;;;7.30;99.90;;;;;;5042007;28;20693;-58
2021/12/31 06:42:07;;;;;;;2.93;2.70;;;7.30;99.90;;;;;;5040492;28;20171;-59
2021/12/31 06:44:34;;;;;;;5.20;3.27;;;7.40;99.90;;;;;;5041173;28;20435;-57
2021/12/31 06:47:00;;;;;;;3.30;2.57;;;7.40;99.90;;;;;;5042533;28;20438;-57
2021/12/31 06:49:26;;;;;;;4.00;3.17;;;7.40;99.90;;;;;;5042086;28;20468;-56
2021/12/31 06:51:51;;;;;;;4.47;3.20;;;7.50;99.90;;;;;;5042307;28;20194;-57
2021/12/31 06:54:17;;;;;;;5.83;3.80;;;7.50;99.90;;;;;;5040189;28;20195;-57
2021/12/31 06:56:43;;;;;;;5.27;3.63;;;7.50;99.90;;;;;;5040312;28;20202;-56
2021/12/31 06:59:08;;;;;;;3.20;2.90;;;7.50;99.90;;;;;;5063554;22;20247;-58
2021/12/31 07:01:34;;;;;;;9.90;2.60;;;7.50;99.90;;;;;;5044892;28;20174;-59
2021/12/31 07:03:59;;;;;;;3.00;2.70;;;7.50;99.90;;;;;;5044350;28;20167;-57
2021/12/31 07:06:25;;;;;;;4.00;3.30;;;7.50;99.90;;;;;;5042848;28;20253;-59
2021/12/31 07:08:51;;;;;;;3.53;2.57;;;7.50;99.90;;;;;;5039850;28;20209;-59
2021/12/31 07:11:19;;;;;;;7.87;5.60;;;7.50;99.90;;;;;;5030232;28;20184;-59
2021/12/31 07:13:45;;;;;;;10.90;7.20;;;7.60;99.90;;;;;;5031695;28;20199;-57
2021/12/31 07:16:11;;;;;;;9.60;6.00;;;7.60;99.90;;;;;;5032729;28;20426;-59
2021/12/31 07:18:36;;;;;;;7.80;5.13;;;7.80;99.90;;;;;;5028342;28;20701;-58
2021/12/31 07:21:03;;;;;;;7.67;5.37;;;7.80;99.90;;;;;;5032348;28;20167;-59
2021/12/31 07:23:28;;;;;;;7.30;5.80;;;7.90;99.90;;;;;;5014316;28;20266;-58
2021/12/31 07:25:54;;;;;;;8.27;5.60;;;7.90;99.90;;;;;;5033238;28;20509;-60
2021/12/31 07:28:20;;;;;;;8.47;5.90;;;8.00;99.90;;;;;;5030394;28;20183;-59
2021/12/31 07:30:46;;;;;;;12.40;7.23;;;8.00;99.90;;;;;;5030140;28;20177;-58
2021/12/31 07:33:19;;;;;;;8.27;5.27;;;8.00;99.90;;;;;;5030187;28;20187;-56
2021/12/31 07:35:46;;;;;;;8.23;5.70;;;8.10;99.90;;;;;;5031308;28;20418;-59
2021/12/31 07:38:20;;;;;;;11.00;8.00;;;8.10;99.90;;;;;;5032573;28;20457;-58
2021/12/31 07:40:47;;;;;;;13.70;9.47;;;8.10;99.90;;;;;;5029790;28;20495;-59
2021/12/31 07:43:13;;;;;;;13.80;9.70;;;8.20;99.90;;;;;;5031033;28;20419;-58
2021/12/31 07:45:40;;;;;;;14.57;10.40;;;8.30;99.90;;;;;;5031592;28;20445;-60
2021/12/31 07:48:06;;;;;;;16.73;10.60;;;8.40;99.90;;;;;;5012900;28;20418;-60
2021/12/31 07:50:32;;;;;;;13.03;9.80;;;8.50;99.90;;;;;;5028856;28;20444;-60
2021/12/31 07:52:58;;;;;;;13.70;9.80;;;8.50;99.90;;;;;;5011008;28;20905;-59
2021/12/31 07:55:24;;;;;;;13.97;9.83;;;8.60;99.90;;;;;;5028304;28;20458;-59
2021/12/31 07:57:50;;;;;;;17.10;9.50;;;8.70;99.90;;;;;;5029023;28;20760;-60
2021/12/31 08:00:16;;;;;;;13.70;8.43;;;8.70;99.90;;;;;;5030389;28;20455;-59
2021/12/31 08:02:41;;;;;;;11.90;8.73;;;8.80;99.90;;;;;;5028854;28;20552;-60
2021/12/31 08:05:08;;;;;;;11.50;8.47;;;8.80;99.90;;;;;;5029631;28;20426;-60
2021/12/31 08:07:33;;;;;;;14.23;9.57;;;8.80;99.90;;;;;;5027681;28;20185;-60
2021/12/31 08:09:59;;;;;;;13.70;9.20;;;8.80;99.90;;;;;;5030307;28;20540;-60
2021/12/31 08:12:25;;;;;;;12.40;8.60;;;8.90;99.90;;;;;;5030018;28;20271;-60
2021/12/31 08:14:50;;;;;;;14.80;8.63;;;8.90;99.90;;;;;;5031266;28;20297;-59
2021/12/31 08:17:17;;;;;;;11.93;8.97;;;8.90;99.90;;;;;;5024949;28;20187;-60
2021/12/31 08:19:42;;;;;;;16.67;9.33;;;8.90;99.90;;;;;;5029309;28;20187;-60
2021/12/31 08:22:09;;;;;;;11.70;8.23;;;9.00;99.90;;;;;;5028017;28;20426;-58
2021/12/31 08:24:34;;;;;;;10.53;8.40;;;9.00;99.90;;;;;;5022896;28;20262;-60
2021/12/31 08:27:00;;;;;;;13.67;9.13;;;9.00;99.90;;;;;;5014514;28;20435;-60
2021/12/31 08:29:26;;;;;;;12.17;7.80;;;9.00;99.90;;;;;;5023431;28;20278;-61
2021/12/31 08:31:51;;;;;;;10.97;8.50;;;9.10;99.90;;;;;;5028612;28;20195;-60
2021/12/31 08:34:17;;;;;;;13.47;9.33;;;9.10;99.90;;;;;;5025124;28;20203;-60
2021/12/31 08:36:43;;;;;;;14.63;9.60;;;9.10;99.90;;;;;;5006891;28;20168;-61
2021/12/31 08:39:09;;;;;;;15.53;10.97;;;9.10;99.90;;;;;;5029227;28;20191;-59
2021/12/31 08:41:36;;;;;;;14.90;9.80;;;9.10;99.90;;;;;;5021549;28;20176;-59
2021/12/31 08:44:02;;;;;;;16.80;11.50;;;9.10;99.90;;;;;;5012790;28;20434;-60
2021/12/31 08:46:28;;;;;;;15.57;10.50;;;9.20;99.90;;;;;;5028366;28;20430;-60
2021/12/31 08:48:54;;;;;;;12.00;8.30;;;9.20;99.90;;;;;;5028690;28;20461;-60
2021/12/31 08:51:20;;;;;;;13.03;9.10;;;9.20;99.90;;;;;;5028729;28;20213;-59
2021/12/31 08:53:45;;;;;;;12.97;9.10;;;9.20;99.90;;;;;;5026293;28;20984;-60
2021/12/31 08:56:11;;;;;;;10.90;8.70;;;9.20;99.90;;;;;;5026313;28;20177;-59
2021/12/31 08:58:37;;;;;;;11.83;8.73;;;9.20;99.90;;;;;;5024097;28;20701;-60
2021/12/31 09:01:03;;;;;;;12.43;8.60;;;9.20;99.90;;;;;;5027146;28;20647;-60
2021/12/31 09:03:28;;;;;;;13.10;8.90;;;9.20;99.90;;;;;;5026309;28;21347;-61
2021/12/31 09:05:54;;;;;;;10.63;7.77;;;9.20;99.90;;;;;;5029500;28;20434;-59
2021/12/31 09:08:20;;;;;;;10.87;8.07;;;9.20;99.90;;;;;;5022935;28;20388;-60
2021/12/31 09:10:46;;;;;;;11.97;8.97;;;9.20;99.90;;;;;;5026592;28;20176;-60
2021/12/31 09:13:11;;;;;;;11.40;8.70;;;9.20;99.90;;;;;;5029626;28;20191;-60
2021/12/31 09:15:37;;;;;;;16.80;9.10;;;9.20;99.90;;;;;;5025657;28;20246;-60
2021/12/31 09:18:03;;;;;;;11.00;8.27;;;9.20;99.90;;;;;;5028928;28;20187;-60
2021/12/31 09:20:29;;;;;;;10.50;7.97;;;9.20;99.90;;;;;;5014016;28;20274;-59
2021/12/31 09:22:55;;;;;;;12.10;8.80;;;9.20;99.90;;;;;;5019927;28;20565;-60
2021/12/31 09:25:21;;;;;;;10.93;8.27;;;9.20;99.90;;;;;;5026821;28;20449;-60
2021/12/31 09:27:47;;;;;;;9.47;7.10;;;9.20;99.90;;;;;;5028903;28;20440;-60
2021/12/31 09:30:13;;;;;;;10.50;7.73;;;9.20;99.90;;;;;;5027931;28;20204;-60
2021/12/31 09:32:39;;;;;;;9.20;7.10;;;9.20;99.90;;;;;;5029196;28;20242;-60
2021/12/31 09:35:06;;;;;;;9.33;7.03;;;9.20;99.90;;;;;;5028346;28;20457;-60
2021/12/31 09:37:32;;;;;;;10.67;7.60;;;9.20;99.90;;;;;;5026690;28;20441;-58
2021/12/31 09:39:58;;;;;;;10.80;7.47;;;9.20;99.90;;;;;;5029817;28;20459;-59
2021/12/31 09:42:24;;;;;;;10.00;7.90;;;9.20;99.90;;;;;;5030882;28;20496;-57
2021/12/31 09:44:50;;;;;;;11.00;8.13;;;9.30;99.90;;;;;;5011166;28;20439;-59
2021/12/31 09:47:18;;;;;;;10.97;7.10;;;9.40;99.90;;;;;;5032808;28;20448;-57
2021/12/31 09:49:46;;;;;;;9.00;7.00;;;9.50;99.90;;;;;;5025265;28;20457;-58
2021/12/31 09:52:13;;;;;;;10.80;7.73;;;9.60;99.90;;;;;;5029752;28;20434;-57
2021/12/31 09:54:41;;;;;;;8.00;6.67;;;9.60;99.90;;;;;;5026257;28;20984;-58
2021/12/31 09:57:14;;;;;;;8.80;6.97;;;9.70;99.90;;;;;;5026472;28;20846;-59
2021/12/31 09:59:41;;;;;;;8.40;7.00;;;9.70;99.90;;;;;;5026101;28;20457;-60
2021/12/31 10:02:09;;;;;;;9.67;7.57;;;9.70;99.90;;;;;;5032321;28;20960;-58
2021/12/31 10:04:54;;;;;;;10.87;7.03;;;9.70;99.90;;;;;;5028277;28;20427;-59
2021/12/31 10:07:21;;;;;;;9.83;7.60;;;9.80;99.90;;;;;;5045102;28;20481;-59
2021/12/31 10:10:02;;;;;;;8.50;6.93;;;9.80;99.90;;;;;;5048513;28;20460;-60
2021/12/31 10:12:43;;;;;;;12.17;8.17;;;9.70;99.90;;;;;;5017730;28;20426;-57
2021/12/31 10:15:09;;;;;;;9.73;7.60;;;9.70;99.90;;;;;;5029177;28;20477;-59
2021/12/31 10:17:35;;;;;;;9.90;7.00;;;9.70;99.90;;;;;;5025304;28;20507;-59
2021/12/31 10:20:01;;;;;;;9.27;7.70;;;9.70;99.90;;;;;;5024483;28;20192;-60
2021/12/31 10:22:26;;;;;;;10.13;7.60;;;9.70;99.90;;;;;;5024648;28;20430;-60
2021/12/31 10:24:52;;;;;;;9.70;7.27;;;9.70;99.90;;;;;;5024690;28;20923;-63
2021/12/31 10:27:20;;;;;;;8.10;6.90;;;9.80;99.90;;;;;;5011983;28;20262;-59
2021/12/31 10:30:00;;;;;;;8.07;6.63;;;9.80;99.90;;;;;;5030801;28;20446;-60
2021/12/31 10:32:29;;;;;;;7.87;6.33;;;9.80;99.90;;;;;;5028490;28;20456;-59
2021/12/31 10:35:14;;;;;;;8.20;6.70;;;9.80;99.90;;;;;;5013176;28;20455;-60
2021/12/31 10:37:51;;;;;;;7.73;6.73;;;9.90;99.90;;;;;;5024582;28;20426;-59
2021/12/31 10:40:30;;;;;;;7.73;6.70;;;10.00;99.90;;;;;;5017174;28;20500;-60
2021/12/31 10:43:17;;;;;;;9.40;7.67;;;10.00;99.90;;;;;;5022258;28;20434;-61
2021/12/31 10:45:59;;;;;;;9.37;7.00;;;10.10;99.90;;;;;;5027181;28;20859;-59
2021/12/31 10:48:45;;;;;;;8.57;7.37;;;10.10;99.90;;;;;;5006676;28;20430;-59
2021/12/31 10:51:16;;;;;;;7.93;6.73;;;10.20;99.90;;;;;;5028622;28;20983;-60
2021/12/31 10:53:49;;;;;;;11.10;7.17;;;10.20;99.90;;;;;;5025023;28;21236;-59
2021/12/31 10:56:15;;;;;;;8.00;6.03;;;10.30;99.90;;;;;;5029180;28;20813;-59
2021/12/31 10:58:44;;;;;;;8.53;6.80;;;10.40;99.90;;;;;;5025946;28;20457;-60
2021/12/31 11:01:13;;;;;;;9.70;6.50;;;10.40;99.90;;;;;;5042650;28;20171;-60
2021/12/31 11:03:40;;;;;;;8.70;7.20;;;10.50;99.90;;;;;;5028353;28;21745;-60
2021/12/31 11:06:07;;;;;;;8.33;6.13;;;10.60;99.90;;;;;;5013847;28;20503;-61
2021/12/31 11:08:34;;;;;;;7.60;5.70;;;10.80;99.90;;;;;;5032522;28;20784;-60
2021/12/31 11:11:04;;;;;;;5.93;5.33;;;11.10;99.90;;;;;;5029758;28;20437;-60
2021/12/31 11:13:30;;;;;;;6.23;5.20;;;11.30;99.90;;;;;;5028362;28;20445;-59
2021/12/31 11:15:58;;;;;;;7.40;4.70;;;11.50;99.90;;;;;;5013685;28;20462;-60
2021/12/31 11:18:24;;;;;;;8.17;6.17;;;11.70;99.90;;;;;;5030798;28;20425;-60
2021/12/31 11:21:11;;;;;;;5.57;5.00;;;11.70;99.90;;;;;;5031842;28;20434;-60
2021/12/31 11:23:36;;;;;;;6.63;5.57;;;11.60;99.90;;;;;;5008791;28;20441;-60
2021/12/31 11:26:06;;;;;;;5.73;5.10;;;11.60;99.90;;;;;;5029848;28;20423;-60
2021/12/31 11:28:36;;;;;;;6.47;4.80;;;11.50;99.90;;;;;;5029444;28;21761;-60
2021/12/31 11:31:20;;;;;;;6.27;5.67;;;11.40;99.90;;;;;;5027320;28;20557;-60
2021/12/31 11:34:08;;;;;;;8.47;6.60;;;11.10;99.90;;;;;;5033218;28;20840;-59
2021/12/31 11:36:54;;;;;;;7.30;6.13;;;10.90;99.90;;;;;;5029303;28;20422;-60
2021/12/31 11:39:28;;;;;;;8.90;6.70;;;10.80;99.90;;;;;;5031145;28;21851;-61
2021/12/31 11:42:00;;;;;;;6.77;5.47;;;10.70;99.90;;;;;;5029966;28;20989;-61
2021/12/31 11:44:27;;;;;;;8.03;6.77;;;10.80;99.90;;;;;;5030558;28;20410;-61
2021/12/31 11:47:14;;;;;;;9.03;6.90;;;10.90;99.90;;;;;;5030678;28;20426;-60
2021/12/31 11:49:41;;;;;;;7.67;5.93;;;11.00;99.90;;;;;;5011756;28;20465;-62
2021/12/31 11:52:08;;;;;;;8.00;6.43;;;11.10;99.90;;;;;;5029639;28;20423;-59
2021/12/31 11:54:41;;;;;;;7.47;6.43;;;11.20;99.90;;;;;;5030570;28;20507;-59
2021/12/31 11:57:18;;;;;;;7.47;6.40;;;11.20;99.90;;;;;;5029151;28;20433;-62
2021/12/31 11:59:47;;;;;;;7.87;6.17;;;11.10;99.90;;;;;;5030707;28;20980;-62
2021/12/31 12:02:41;;;;;;;12.40;7.40;;;11.00;99.90;;;;;;5028750;28;20787;-61
2021/12/31 12:05:11;;;;;;;7.57;6.30;;;10.90;99.90;;;;;;5028150;28;20898;-61
2021/12/31 12:07:42;;;;;;;7.10;6.30;;;10.80;99.90;;;;;;5031556;28;21097;-61
2021/12/31 12:10:11;;;;;;;10.63;7.50;;;10.80;99.90;;;;;;5028367;28;20449;-62
2021/12/31 12:12:38;;;;;;;9.83;6.77;;;10.70;99.90;;;;;;5014872;28;20442;-62
2021/12/31 12:15:24;;;;;;;9.50;6.60;;;10.70;99.90;;;;;;5020986;28;20999;-61
2021/12/31 12:17:49;;;;;;;7.80;6.07;;;10.70;99.90;;;;;;5029836;28;20417;-61
2021/12/31 12:20:20;;;;;;;8.63;5.73;;;10.70;99.90;;;;;;5028605;28;20444;-62
2021/12/31 12:22:51;;;;;;;7.07;6.37;;;10.80;99.90;;;;;;5026768;28;20176;-60
2021/12/31 12:25:24;;;;;;;7.50;6.27;;;10.80;99.90;;;;;;5007668;28;20445;-60
2021/12/31 12:27:53;;;;;;;9.00;6.13;;;10.80;99.90;;;;;;5021390;28;20500;-60
2021/12/31 12:30:19;;;;;;;12.00;6.30;;;10.90;99.90;;;;;;5021456;28;20457;-61
2021/12/31 12:35:15;;;;;;;7.47;5.70;;;10.90;99.90;;;;;;5026668;28;20464;-61
2021/12/31 12:37:41;;;;;;;5.40;4.73;;;10.90;99.90;;;;;;5025272;28;20442;-60
2021/12/31 12:40:09;;;;;;;8.87;5.83;;;10.90;99.90;;;;;;5028742;28;20452;-61
2021/12/31 12:42:35;;;;;;;7.63;5.37;;;10.90;99.90;;;;;;5027563;28;20469;-62
2021/12/31 12:45:06;;;;;;;6.90;5.37;;;10.90;99.90;;;;;;5025957;28;20466;-63
2021/12/31 12:47:32;;;;;;;6.73;5.50;;;10.90;99.90;;;;;;5022892;28;20430;-59
2021/12/31 12:50:00;;;;;;;7.70;5.60;;;10.90;99.90;;;;;;5017179;28;20507;-61
2021/12/31 12:52:26;;;;;;;6.10;5.50;;;11.00;99.90;;;;;;5022077;28;20431;-59
2021/12/31 12:55:14;;;;;;;6.30;4.37;;;11.00;99.90;;;;;;5027307;28;20468;-61
2021/12/31 12:57:41;;;;;;;6.83;5.40;;;11.00;99.90;;;;;;5025730;28;20865;-61
2021/12/31 13:00:09;;;;;;;7.50;5.60;;;11.10;99.90;;;;;;5041893;28;20456;-58